Myra Eckstein — WDF9473 — position and weather

sailwx.info

Track history (hours):
 
Tides and Currents Weather Stations Pressure Air Temp Water Temp Dewpoint Dewpoint Depression Visibility Wind Speed Wind Dir Waves Ship Positions

Myra Eckstein

Owner: Marquette Transportation Co. LLC, Paducah, KY. More information available from US FCC via Universal Licensing System and Coast Guard Vessel Documentation Center.

Last reported at 2014-Oct-08 16:20 UTC. Time now 2014-Oct-23 05:12 UTC.
Position N 30°03' W 090°38'.
Warning: this ship's position is 14 days out of date.

Length 47 m; draft 3.5 m.

Type: Towing. MMSI: 367505510.

Date/timePositionNaut miles runAvg speedWind from/ knotsBaromVisibWave heightAir tempDewpointWater temp
2014-Oct-08 16:20N 30°03' W 090°38'5 6.1
2014-Oct-08 15:33N 30°03' W 090°33'4 2.1
2014-Oct-08 13:33N 30°02' W 090°28'0 0.0
2014-Oct-08 12:32N 30°02' W 090°28'0 0.0
2014-Oct-08 11:33N 30°02' W 090°28'0 0.0
2014-Oct-08 10:33N 30°02' W 090°28'0 0.0
2014-Oct-08 09:33N 30°02' W 090°28'0 0.0
2014-Oct-08 08:33N 30°02' W 090°28'0 0.0
2014-Oct-08 07:33N 30°02' W 090°28'0 0.0
2014-Oct-08 06:33N 30°02' W 090°28'0 0.0
2014-Oct-08 05:33N 30°02' W 090°28'0 0.1
2014-Oct-08 04:33N 30°02' W 090°28'0 0.0
2014-Oct-08 03:33N 30°02' W 090°28'0 0.0
2014-Oct-08 02:33N 30°02' W 090°28'0 0.0
2014-Oct-07 20:30N 30°01' W 090°28'8 0.6
2014-Oct-07 05:31N 29°56' W 090°21'1 0.5
2014-Oct-07 04:27N 29°56' W 090°21'0 0.0
2014-Oct-07 02:16N 29°56' W 090°21'0 0.0
2014-Oct-07 01:32N 29°56' W 090°21'0 0.0
2014-Oct-07 00:12N 29°56' W 090°21'0 0.0
2014-Oct-06 23:33N 29°56' W 090°21'9 1.1
2014-Oct-06 15:27N 30°03' W 090°29'5 5.2
2014-Oct-06 14:33N 30°03' W 090°34'0 0.1
2014-Oct-06 13:33N 30°03' W 090°34'0 0.0
2014-Oct-06 12:33N 30°03' W 090°34'0 0.0
2014-Oct-06 11:33N 30°03' W 090°34'0 0.0
2014-Oct-06 10:33N 30°03' W 090°34'0 0.0
2014-Oct-06 09:33N 30°03' W 090°34'0 0.1
2014-Oct-06 08:33N 30°03' W 090°34'0 0.1
2014-Oct-06 07:33N 30°03' W 090°34'0 0.0
2014-Oct-06 06:33N 30°03' W 090°34'0 0.0
2014-Oct-06 05:33N 30°03' W 090°34'0 0.0
2014-Oct-06 04:33N 30°03' W 090°34'0 0.0
2014-Oct-06 03:33N 30°03' W 090°34'0 0.0
2014-Oct-06 02:33N 30°03' W 090°34'0 0.0
2014-Oct-06 01:33N 30°03' W 090°34'2 2.2
2014-Oct-06 00:33N 30°02' W 090°36'0 0.0
2014-Oct-05 23:33N 30°02' W 090°36'0 0.0
2014-Oct-05 22:33N 30°02' W 090°36'0 0.0
2014-Oct-05 21:33N 30°02' W 090°36'3 3.1
2014-Oct-05 20:33N 30°03' W 090°40'7 6.8
2014-Oct-05 19:33N 30°00' W 090°47'7 1.3
2014-Oct-05 14:06N 30°04' W 090°54'  
Track history (hours):
 
Tides and Currents Weather Stations Pressure Air Temp Water Temp Dewpoint Dewpoint Depression Visibility Wind Speed Wind Dir Waves Ship Positions

Myra Eckstein

Owner: Marquette Transportation Co. LLC, Paducah, KY. More information available from US FCC via Universal Licensing System and Coast Guard Vessel Documentation Center.

Last reported at 2014-Oct-08 16:20 UTC. Time now 2014-Oct-23 05:12 UTC.
Position N 30°03' W 090°38'.
Warning: this ship's position is 14 days out of date.

Length 47 m; draft 3.5 m.

Type: Towing. MMSI: 367505510.

Date/timePositionNaut miles runAvg speedWind from/ knotsBaromVisibWave heightAir tempDewpointWater temp
2014-Oct-08 16:20N 30°03' W 090°38'5 6.1
2014-Oct-08 15:33N 30°03' W 090°33'4 2.1
2014-Oct-08 13:33N 30°02' W 090°28'0 0.0
2014-Oct-08 12:32N 30°02' W 090°28'0 0.0
2014-Oct-08 11:33N 30°02' W 090°28'0 0.0
2014-Oct-08 10:33N 30°02' W 090°28'0 0.0
2014-Oct-08 09:33N 30°02' W 090°28'0 0.0
2014-Oct-08 08:33N 30°02' W 090°28'0 0.0
2014-Oct-08 07:33N 30°02' W 090°28'0 0.0
2014-Oct-08 06:33N 30°02' W 090°28'0 0.0
2014-Oct-08 05:33N 30°02' W 090°28'0 0.1
2014-Oct-08 04:33N 30°02' W 090°28'0 0.0
2014-Oct-08 03:33N 30°02' W 090°28'0 0.0
2014-Oct-08 02:33N 30°02' W 090°28'0 0.0
2014-Oct-07 20:30N 30°01' W 090°28'8 0.6
2014-Oct-07 05:31N 29°56' W 090°21'1 0.5
2014-Oct-07 04:27N 29°56' W 090°21'0 0.0
2014-Oct-07 02:16N 29°56' W 090°21'0 0.0
2014-Oct-07 01:32N 29°56' W 090°21'0 0.0
2014-Oct-07 00:12N 29°56' W 090°21'0 0.0
2014-Oct-06 23:33N 29°56' W 090°21'9 1.1
2014-Oct-06 15:27N 30°03' W 090°29'5 5.2
2014-Oct-06 14:33N 30°03' W 090°34'0 0.1
2014-Oct-06 13:33N 30°03' W 090°34'0 0.0
2014-Oct-06 12:33N 30°03' W 090°34'0 0.0
2014-Oct-06 11:33N 30°03' W 090°34'0 0.0
2014-Oct-06 10:33N 30°03' W 090°34'0 0.0
2014-Oct-06 09:33N 30°03' W 090°34'0 0.1
2014-Oct-06 08:33N 30°03' W 090°34'0 0.1
2014-Oct-06 07:33N 30°03' W 090°34'0 0.0
2014-Oct-06 06:33N 30°03' W 090°34'0 0.0
2014-Oct-06 05:33N 30°03' W 090°34'0 0.0
2014-Oct-06 04:33N 30°03' W 090°34'0 0.0
2014-Oct-06 03:33N 30°03' W 090°34'0 0.0
2014-Oct-06 02:33N 30°03' W 090°34'0 0.0
2014-Oct-06 01:33N 30°03' W 090°34'2 2.2
2014-Oct-06 00:33N 30°02' W 090°36'0 0.0
2014-Oct-05 23:33N 30°02' W 090°36'0 0.0
2014-Oct-05 22:33N 30°02' W 090°36'0 0.0
2014-Oct-05 21:33N 30°02' W 090°36'3 3.1
2014-Oct-05 20:33N 30°03' W 090°40'7 6.8
2014-Oct-05 19:33N 30°00' W 090°47'7 1.3
2014-Oct-05 14:06N 30°04' W 090°54'  

Dump ship's entire track history